Aérodrome :
LOGIN :

S'inscrire | Disclaimer

   EN    FR    IT 

 










Légende :    VFR   VFR Marginal   IFR   IFR Intensif   IFR Très Intensif
Visi : 
Plafond : 
>= 8 km
>= 3000ft
5 à 8 km
1000 à 3000 ft
1500m à 5 km
500 à 1000 ft
800 à 1500m
200 à 500 ft
< 800m
< 200 ft
Symboles :   Orages  Brouillard  Fortes neiges  Fortes précipitations  Vent > 20 kt
SIGMETs :   Divers  Orages  Givrage  Turbulence  Onde Orograph.  Cendres Volcan.






- Altitude de l'aérodrome : 314 ft
- Code IATA : OTP


LROP - Bucarest - Henri Coanda

DERNIER METAR :
  • 221030Z 11005KT 070V130 5000 BR OVC003 14/13 Q1025 BECMG 7000 NSW BKN005

METARs EXPIRÉS :
  • 221000Z 07004KT 020V130 1500 BR OVC002 13/13 Q1025 BECMG 3000 BR BKN005
  • 220930Z 04004KT 020V080 0800 R08R/1100U R26L/1200U R08L/1000U R26R/1200U FG BKN001 OVC002 13/13 Q1025 R88/CLRD//
  • 220900Z 05005KT 010V080 0600 R08R/0600D R26L/0800U R08L/0800D R26R/0800D FG OVC001 13/13 Q1025 R88/CLRD// BECMG 1500 BR BKN003
  • 220830Z 05006KT 020V080 0400 R08R/0500N R26L/0500N R08L/0500N R26R/0500N FG BKN001 OVC002 13/13 Q1025 R88/CLRD// BECMG 0800 BKN002
  • 220800Z 05005KT 020V080 0350 R08R/0450U R26L/0450N R08L/0600N R26R/0550N FG BKN001 OVC002 12/12 Q1025 R88/19//95

TAF AMD TAF LROP
Valide du 22 à 10h jusqu'au 23 à 06h UTC


221030Z 2210/2306 VRB04KT 5000 BR OVC003
BECMG 2211/2213 CAVOK
BECMG 2221/2223 5000 BR
BECMG 2223/2301 1500 BR BKN005
TEMPO 2302/2306 0600 FG VV002



MET'MAP, la Météo Aéronautique d'un coup d'oeil ! - Copyright ORBIFLY Décembre 2007 - Disclaimer

ORBIFLY MET'MAP TEAM :

Programmation & Développement : Alexandra Zaïnal
Conception & Développement : Baudouin d'Aumeries
Co-Programmation & Développement : Marc-Olivier Méhu
Soutien technique & logistique : Manuel Goepfert

Contact : metmap@orbifly.com




SOURCES & CREDITS :

   NOAA